x

9419750 - Crescent City, Ca (cecc1) Weather Station

11:54pm - Thu 27th Nov 2014 All times are PST. -8 hours from GMT.

  • Wind
    16mph, 21mph gusts
  • Sea Temp 56°f
  • Air Temp 59°f
  • Sea Pressure 1013.5mb
  • 9419750 - Crescent City, Ca
  • 9419750 - Crescent City, Ca

More Historic Weather Station data

Upgrade to MSW Pro to gain access to the past 30 days of data for over 8000 Wavebouys and Weather Stations around the globe.

Join Pro

Comparision Forecast

View Surf forecast
   
Thu 11/27 11:54pm 16 21 mph 1013.5mb 56f 59f
11:48pm 16 20 mph 1013.7mb 56f 59f
11:42pm 15 20 mph 1013.8mb 56f 59f
11:36pm 17 21 mph 1014.1mb 56f 59f
11:30pm 20 23 mph 1014mb 56f 59f
11:24pm 20 24 mph 1013.9mb 56f 59f
11:18pm 20 24 mph 1013.9mb 56f 59f
11:12pm 18 23 mph 1014mb 56f 59f
11:06pm 18 22 mph 1014.2mb 56f 59f
11:00pm 20 23 mph 1013.8mb 56f 59f
10:54pm 20 23 mph 1013.9mb 56f 59f
10:48pm 18 22 mph 1014.3mb 56f 59f
10:42pm 20 23 mph 1014.3mb 56f 59f
10:36pm 16 22 mph 1014.4mb 56f 59f
10:30pm 20 23 mph 1014.3mb 56f 59f
10:24pm 18 22 mph 1014.4mb 56f 59f
10:18pm 20 24 mph 1014.5mb 56f 59f
10:12pm 18 25 mph 1014.6mb 56f 59f
10:06pm 20 24 mph 1014.8mb 56f 59f
10:00pm 21 25 mph 1014.8mb 56f 59f
9:54pm 23 28 mph 1014.7mb 56f 59f
9:48pm 22 26 mph 1014.5mb 56f 59f
9:42pm 21 29 mph 1014.6mb 56f 59f
9:36pm 21 24 mph 1014.5mb 56f 59f
9:30pm 21 23 mph 1014.5mb 56f 59f
9:24pm 17 23 mph 1014.6mb 56f 59f
9:18pm 18 21 mph 1014.6mb 56f 59f
9:12pm 17 22 mph 1014.8mb 56f 59f
9:06pm 18 22 mph 1014.7mb 56f 59f
9:00pm 16 20 mph 1014.9mb 56f 59f
8:54pm 17 22 mph 1015mb 56f 59f
8:48pm 14 17 mph 1015mb 56f 59f
8:42pm 16 21 mph 1015mb 56f 59f
8:36pm 15 18 mph 1015.3mb 56f 59f
8:30pm 15 18 mph 1015.2mb 56f 59f
8:24pm 13 16 mph 1015.2mb 56f 59f
8:18pm 15 17 mph 1015.4mb 56f 59f
8:12pm 14 17 mph 1015.3mb 56f 59f
8:06pm 14 17 mph 1015.4mb 56f 59f
8:00pm 14 16 mph 1015.6mb 56f 59f
7:54pm 11 16 mph 1015.7mb 56f 59f
7:48pm 14 15 mph 1015.7mb 56f 59f
7:42pm 13 14 mph 1015.9mb 56f 59f
7:36pm 11 14 mph 1016mb 56f 59f
7:30pm 10 15 mph 1016.1mb 56f 59f
7:24pm 11 14 mph 1016.1mb 56f 59f
7:18pm 11 14 mph 1016.1mb 56f 59f
7:12pm 13 16 mph 1016.3mb 56f 60f
7:06pm 11 13 mph 1016.3mb 56f 59f
7:00pm 10 13 mph 1016.3mb 56f 59f
6:54pm 9 15 mph 1016.4mb 56f 60f
6:48pm 9 13 mph 1016.4mb 56f 59f
6:42pm 10 13 mph 1016.3mb 56f 60f
6:36pm 8 11 mph 1016.5mb 56f 60f
6:30pm 9 11 mph 1016.5mb 56f 60f
6:24pm 10 13 mph 1016.4mb 56f 59f
6:18pm 10 13 mph - 56f 59f
6:12pm 9 13 mph - 56f 59f
6:06pm 9 10 mph - 56f 59f
6:00pm 9 10 mph 1016.6mb 56f 59f
5:54pm 9 11 mph 1016.6mb 56f 59f
5:48pm 10 13 mph 1016.6mb 56f 59f
5:42pm 10 13 mph 1016.7mb 56f 60f
5:36pm 13 16 mph 1016.6mb 56f 60f
5:30pm 11 15 mph 1016.5mb 56f 59f
5:24pm 11 15 mph 1016.3mb 56f 59f
5:18pm 13 18 mph 1016.1mb 56f 59f
5:12pm 14 18 mph 1016.1mb 56f 59f
5:06pm 16 21 mph 1015.9mb 56f 60f
5:00pm 18 22 mph 1015.9mb 56f 60f
4:54pm 16 22 mph 1015.8mb 56f 60f
4:48pm 20 25 mph 1015.7mb 56f 60f
4:42pm 18 22 mph 1015.7mb 56f 60f
4:36pm 20 23 mph 1015.8mb 56f 60f
4:30pm 18 22 mph 1015.9mb 56f 60f
4:24pm 17 21 mph 1016.1mb 56f 60f
4:18pm 21 25 mph 1016mb 56f 60f
4:12pm 21 24 mph 1016mb 56f 60f
4:06pm 22 24 mph 1016.1mb 56f 60f
4:00pm 21 24 mph 1016mb 56f 60f
3:54pm 22 24 mph 1016.2mb 56f 60f
3:48pm 23 25 mph 1016.2mb 56f 60f
3:42pm 20 23 mph 1016.5mb 56f 60f
3:36pm 20 24 mph 1016.5mb 56f 60f
3:30pm 20 24 mph 1016.5mb 56f 60f
3:24pm 21 25 mph 1016.3mb 56f 60f
3:18pm 22 25 mph 1016.3mb - -
3:12pm 21 25 mph 1016.3mb - -
3:06pm 22 25 mph 1016.5mb - -
3:00pm 20 25 mph 1016.5mb 56f 59f
2:54pm 21 24 mph 1016.4mb 56f 59f
2:48pm 21 25 mph 1016.3mb 56f 59f
2:42pm 22 26 mph 1016.1mb 56f 59f
2:36pm 23 28 mph 1015.9mb 56f 60f
2:30pm 24 28 mph 1015.7mb 56f 59f
2:24pm 24 29 mph 1015.5mb 56f 59f
2:18pm 22 26 mph 1015.5mb 56f 59f
2:12pm 21 25 mph 1015.5mb 56f 59f
2:06pm 23 26 mph 1015.6mb 56f 59f
2:00pm 22 25 mph 1015.7mb 56f 59f
1:54pm 22 28 mph 1015.8mb 56f 59f
1:48pm 22 28 mph 1015.9mb 56f 60f
1:42pm 23 29 mph 1015.7mb 56f 60f
1:36pm 23 26 mph 1015.8mb 56f 60f
1:30pm 22 25 mph 1015.8mb 56f 60f
1:24pm 22 25 mph 1015.9mb 56f 60f
1:18pm 20 25 mph 1016.2mb 56f 60f
1:12pm 21 23 mph 1016.4mb 56f 60f
1:06pm 18 24 mph 1016.4mb 56f 60f
1:00pm 21 25 mph 1016.5mb 56f 60f
12:54pm 21 24 mph 1016.8mb 56f 60f
12:48pm 20 23 mph 1017.2mb 56f 60f
12:42pm 18 23 mph 1017.2mb 56f 60f
12:36pm 22 26 mph 1017mb 56f 60f
12:30pm 22 26 mph 1017mb 56f 60f
12:24pm 22 26 mph 1017.1mb 56f 60f
12:18pm 22 24 mph 1017.2mb 56f 60f
12:12pm 22 24 mph 1017.6mb 56f 60f
12:06pm 21 23 mph 1017.7mb 56f 60f
12:00pm 18 22 mph 1018.4mb 56f 60f
11:54am 20 23 mph 1018.5mb 56f 60f
11:48am 18 22 mph 1018.5mb 56f 59f
11:42am 18 22 mph 1018.6mb 56f 60f
11:36am 20 24 mph 1018.5mb 56f 60f
11:30am 21 25 mph 1018.4mb 56f 60f
11:24am 22 25 mph 1018.4mb 56f 60f
11:18am 23 26 mph 1018.3mb 56f 60f
11:12am 18 24 mph 1018.3mb 56f 60f
11:06am 20 24 mph 1018.4mb 56f 60f
11:00am 18 22 mph 1018.5mb 56f 60f
10:54am 17 23 mph 1018.4mb 56f 60f
10:48am 18 23 mph 1018.5mb 56f 60f
10:42am 17 24 mph 1018.6mb 56f 60f
10:36am 20 24 mph 1018.5mb 56f 60f
10:30am 21 25 mph 1018.3mb 56f 60f
10:24am 20 24 mph 1018.3mb 56f 60f
10:18am 20 24 mph 1018.3mb 56f 59f
10:12am 21 25 mph 1018.4mb 56f 60f
10:06am 21 25 mph 1018.5mb 56f 60f
10:00am 21 25 mph 1018.5mb 56f 60f
9:54am 18 25 mph 1018.3mb 56f 60f
9:48am 22 26 mph 1018.4mb 56f 60f
9:42am 20 24 mph 1018.5mb 56f 60f
9:36am 17 21 mph 1018.8mb 56f 60f
9:30am 17 21 mph 1018.8mb 56f 60f
9:24am 16 20 mph 1018.8mb 56f 60f
9:18am 16 20 mph 1018.9mb 56f 59f
9:12am 14 17 mph 1019mb 56f 59f
9:06am 14 16 mph 1019mb 56f 59f
9:00am 14 18 mph 1018.8mb 56f 59f
8:54am 16 20 mph 1018.5mb 56f 60f
8:48am 16 20 mph 1018.5mb 56f 59f
8:42am 17 22 mph 1018.4mb 56f 59f
8:36am 17 22 mph 1018.1mb 56f 60f
8:30am 18 23 mph 1018mb 56f 59f
8:24am 21 28 mph 1017.9mb 56f 59f
8:18am 20 23 mph 1018.1mb 56f 59f
8:12am 17 21 mph 1018.3mb 56f 59f
8:06am 17 22 mph 1018.2mb 56f 59f
8:00am 16 21 mph 1018.2mb 56f 59f
7:54am 17 22 mph 1018.2mb 56f 59f
7:48am 16 20 mph 1018.3mb 56f 59f
7:42am 16 20 mph 1018.4mb 56f 59f
7:36am 16 21 mph 1018.2mb 56f 59f
7:30am 16 20 mph 1018.1mb 56f 59f
7:24am 16 20 mph 1018.2mb 56f 59f
7:18am 15 20 mph 1018mb 56f 59f
7:12am 16 20 mph 1018.2mb 56f 59f
7:06am 16 21 mph 1017.9mb 56f 59f
7:00am 18 22 mph 1017.5mb 56f 59f
6:54am 17 21 mph 1017.6mb 56f 59f
6:48am 16 20 mph 1018.2mb 56f 59f
6:42am 16 18 mph 1018.2mb 56f 59f
6:36am 14 17 mph 1018.3mb 56f 59f
6:30am 15 18 mph 1018.2mb 56f 59f
6:24am 15 16 mph 1018.4mb 56f 59f
6:18am 13 15 mph 1018.4mb 56f 59f
6:12am 13 17 mph 1018.5mb 56f 59f
6:06am 13 15 mph 1018.5mb 56f 59f
6:00am 13 15 mph 1018.6mb 56f 59f
5:54am 11 13 mph 1018.6mb 56f 59f
5:48am 9 11 mph 1018.8mb 56f 59f
5:42am 9 11 mph 1019mb 56f 59f
5:36am 9 11 mph 1019.1mb 56f 59f
5:30am 8 11 mph 1019.2mb 56f 59f
5:24am 8 10 mph 1019.3mb 56f 59f
5:18am 8 11 mph 1019.4mb 56f 59f
5:12am 10 14 mph 1019mb 56f 59f
5:06am 13 15 mph 1018.9mb 56f 59f
5:00am 13 15 mph 1019mb 56f 59f
4:54am 11 14 mph 1018.9mb 56f 59f
4:48am 10 11 mph 1018.7mb 56f 59f
4:42am 9 11 mph 1018.8mb 56f 58f
4:36am 10 11 mph 1018.8mb 56f 58f
4:30am 10 13 mph 1018.7mb 56f 58f
4:24am 9 10 mph 1018.8mb 56f 58f
4:18am 5 6 mph 1019.4mb 56f 58f
4:12am 2 5 mph 1019.9mb 56f 58f
4:06am 3 6 mph 1020.1mb 56f 58f
4:00am 5 6 mph 1019.6mb 56f 59f
3:54am 5 11 mph 1019.4mb 56f 59f
3:48am 8 11 mph 1019.4mb 56f 59f
3:42am 10 17 mph 1019.2mb 56f 59f
3:36am 15 17 mph 1018.9mb 56f 59f
3:30am 16 20 mph 1018.3mb 56f 58f
3:24am 18 21 mph 1018.3mb 56f 59f
3:18am 14 16 mph 1019.4mb 56f 59f
3:12am 14 18 mph 1019.9mb 56f 60f
3:06am 16 18 mph 1019.9mb 56f 60f
3:00am 15 21 mph 1019.7mb 56f 60f
2:54am 16 21 mph 1019.4mb 56f 61f
2:48am 16 21 mph 1019.3mb 56f 61f
2:42am 15 18 mph 1019.2mb 56f 60f
2:36am 15 22 mph 1019mb 56f 61f
2:30am 15 23 mph 1019mb 56f 60f
2:24am 20 22 mph 1018.6mb 56f 60f
2:18am 18 21 mph 1019.3mb 56f 59f
2:12am 15 16 mph 1020.4mb 56f 59f
2:06am 8 10 mph 1021.3mb 56f 58f
2:00am 9 11 mph 1021.1mb 56f 58f
1:54am 8 11 mph 1021.3mb 56f 59f
1:48am 8 9 mph 1020.7mb 56f 59f
1:42am 8 9 mph 1020.8mb 56f 58f
1:36am 7 9 mph 1020.8mb 56f 57f
1:30am 6 9 mph 1020.7mb 56f 56f
1:24am 6 7 mph 1020.5mb 56f 57f
1:18am 6
mph
1020.7mb 56f 58f
1:12am 3
mph
1021mb 56f 58f
1:06am 2
mph
1021.3mb 56f 59f
1:00am 2 3 mph 1021.1mb 56f 59f
12:54am 2 3 mph 1021.1mb 56f 59f
12:48am 2
mph
1020.9mb 56f 59f
12:42am 2 3 mph 1020.9mb 56f 60f
12:36am 2 5 mph 1020.8mb 56f 60f
12:30am 2 7 mph 1020.7mb 56f 60f
12:18am 3 5 mph 1020.5mb 56f 60f
12:12am 5 9 mph 1020.3mb 56f 60f
12:06am 7 13 mph 1020.2mb 56f 60f
12:00am 11 14 mph 1019.8mb 56f 60f
Wed 11/26 11:54pm 11 13 mph 1019.9mb 56f 60f
11:48pm 8 13 mph 1020.6mb 56f 61f
11:42pm 8 11 mph 1020.9mb 56f 61f
11:36pm 9 11 mph 1020.8mb 56f 61f
11:30pm 9 17 mph 1020.6mb 56f 61f
11:24pm 13 15 mph 1020.2mb 56f 61f
11:18pm 13 16 mph 1020.2mb 56f 61f
11:12pm 15 18 mph 1019.9mb 56f 61f
11:06pm 15 18 mph 1020.2mb 56f 61f
11:00pm 15 18 mph 1020.7mb 56f 61f
10:54pm 11 14 mph 1021mb 56f 61f
10:48pm 11 14 mph 1021.3mb 56f 61f
10:42pm 10 15 mph 1021.5mb 56f 61f
10:36pm 10 14 mph 1021.6mb 56f 62f
10:30pm 11 14 mph 1021.5mb 56f 61f
10:24pm 11 15 mph 1021.5mb 56f 62f
10:18pm 14 17 mph 1021.4mb 56f 62f
10:12pm 10 16 mph 1021.4mb 56f 62f
10:06pm 11 16 mph 1021.2mb 56f 62f
9:54pm 15 18 mph 1020.8mb 56f 62f
9:48pm 13 16 mph 1020.9mb 56f 61f
9:42pm 13 16 mph 1020.9mb 56f 62f
9:36pm 13 17 mph 1021mb 56f 62f
9:30pm 13 15 mph 1021.1mb 56f 62f
9:24pm 9 13 mph 1020.9mb 56f 60f
9:18pm 6 8 mph 1020.7mb 56f 58f
9:12pm 5 9 mph 1020.5mb 56f 57f
9:06pm 6 7 mph 1020.4mb 56f 57f
9:00pm 6 7 mph 1020.4mb 56f 59f
8:54pm 6 7 mph 1020.4mb 56f 59f
8:48pm 5 6 mph 1020.2mb 56f 59f
8:42pm 5 7 mph 1020.2mb 56f 59f
8:36pm 2 5 mph 1020.2mb 56f 59f
8:30pm 1 2 mph 1020.4mb 56f 59f
8:24pm 2 3 mph 1020.3mb 56f 59f
8:18pm 2 3 mph 1020.2mb 56f 60f
8:12pm 1 6 mph 1020.2mb 56f 61f
8:06pm  -  3 mph 1020.3mb 56f 61f
8:00pm  -  1 mph 1020.2mb 56f 61f
7:54pm 2 7 mph 1020.1mb 56f 60f
7:48pm 7 9 mph 1020mb 56f 60f
7:42pm 8 10 mph 1020.1mb 56f 62f
7:36pm 7 8 mph 1020.2mb 56f 61f
7:30pm 5 8 mph 1020.2mb 56f 60f
7:24pm 9 11 mph 1020.2mb 56f 62f
7:18pm 7 8 mph 1020.4mb 56f 62f
7:12pm 7 9 mph 1020.3mb 56f 61f
7:06pm 6 9 mph 1020.5mb 56f 61f
7:00pm 5 6 mph 1020.5mb 56f 61f
6:54pm 6 10 mph 1020.5mb 56f 61f
6:48pm 3 6 mph 1020.4mb 56f 61f
6:42pm 5 7 mph 1020.4mb 56f 61f
6:36pm 5 6 mph 1020.3mb 56f 61f
6:30pm 5
mph
1020.3mb 56f 60f
6:24pm 3 7 mph 1020.5mb 56f 61f
6:18pm 6 8 mph 1020.3mb 56f 61f
6:12pm 6 8 mph 1020.4mb 56f 60f
6:06pm 3 7 mph 1020.4mb 56f 60f
6:00pm 5
mph
1020.5mb 56f 60f
5:54pm 5 6 mph 1020.4mb 56f 60f
5:48pm 6
mph
1020.3mb 56f 60f
5:42pm 2 5 mph 1020.5mb 56f 58f
5:36pm 2 3 mph 1020.3mb 56f 59f
5:30pm 2 3 mph 1020.4mb 56f 59f
5:24pm 2 5 mph 1020.4mb 56f 59f
5:12pm 5 6 mph 1020.3mb 56f 60f
5:00pm  -  2 mph 1020.3mb 56f 59f
4:54pm 2 3 mph 1020.4mb 56f 59f
4:48pm 2
mph
1020.5mb 56f 59f
4:42pm 1 2 mph 1020.3mb 56f 60f
4:36pm 1 2 mph 1020.2mb 56f 60f
4:24pm 2
mph
1020.1mb 56f 60f
4:18pm 2
mph
1020.1mb 56f 60f
4:12pm  -  1 mph 1020mb 56f 60f
4:06pm 2 3 mph 1020mb 56f 60f
3:54pm 3 5 mph 1020mb 56f 60f
3:48pm 3 5 mph 1020mb 56f 60f
3:42pm 2 3 mph 1020.1mb 56f 61f
3:36pm 2 3 mph 1020.1mb 56f 61f
3:30pm 2 3 mph 1020.3mb 56f 61f
3:24pm 3 6 mph 1020.3mb 56f 60f
3:18pm 6 8 mph 1020.2mb 56f 61f
3:12pm 3 6 mph 1020.2mb 56f 61f
3:06pm  -  3 mph 1020.3mb 56f 60f
3:00pm 3 9 mph 1020.4mb 56f 61f
2:54pm 7 10 mph 1020.4mb 56f 62f
2:48pm 5 8 mph 1020.4mb 56f 61f
2:42pm 5 9 mph 1020.3mb 56f 61f
2:36pm 5 7 mph 1020.2mb 56f 60f
2:30pm 5 14 mph 1020.2mb 56f 60f
2:24pm 9 14 mph 1020.3mb 56f 64f
2:18pm 11 14 mph 1020.4mb 56f 61f
2:12pm 13 14 mph 1020.3mb 56f 61f
2:06pm 8 10 mph 1020.4mb 56f 59f
2:00pm 8 9 mph 1020.6mb 56f 59f
1:54pm 8 10 mph 1020.8mb 56f 59f
1:48pm 7 8 mph 1020.8mb 56f 58f
1:42pm 6 8 mph 1020.8mb 56f 59f
1:36pm 5 6 mph 1020.9mb 56f 58f
1:30pm 5 6 mph 1020.8mb 56f 58f
1:24pm 3 6 mph 1021mb 56f 58f
1:18pm 5 6 mph 1021mb 56f 59f
1:12pm 5 6 mph 1021.1mb 56f 58f
1:06pm 5 6 mph 1021.2mb 56f 59f
1:00pm 3 6 mph 1021.3mb 56f 59f
12:54pm 2 5 mph 1021.3mb 56f 59f
12:48pm 3 5 mph 1021.3mb 56f 58f
12:42pm 3
mph
1021.4mb 56f 59f
12:36pm 2 3 mph 1021.5mb 56f 59f
12:30pm  -  2 mph 1021.6mb 56f 60f
12:24pm  -  1 mph 1021.6mb 56f 60f
12:18pm  -  1 mph 1021.6mb 56f 60f
12:12pm  -  1 mph 1021.7mb 56f 59f
12:06pm 1 2 mph 1021.8mb 56f 58f
12:00pm 3
mph
1021.8mb 56f 58f
11:54am 2 3 mph 1021.9mb 56f 58f
11:48am 2 3 mph 1022.1mb 56f 58f
11:42am 3 7 mph 1022.1mb 56f 58f
11:36am 6 8 mph 1022.3mb 56f 57f
11:30am 8 9 mph 1022.4mb 56f 57f
11:24am 7 8 mph 1022.7mb 56f 57f
11:18am 6 8 mph 1023mb 56f 57f
11:12am 7 9 mph 1023.1mb 56f 57f
11:06am 6 7 mph 1023.2mb 56f 57f
11:00am 5 6 mph 1023.3mb 56f 57f
10:54am 3 5 mph 1023.3mb 56f 57f
10:48am 3 7 mph 1023.3mb 56f 58f
10:42am 6 8 mph 1023.3mb 56f 58f
10:36am 6 9 mph 1023.2mb 56f 58f
10:30am 8 10 mph 1023.2mb 56f 58f
10:24am 8 10 mph 1023.2mb 56f 58f
10:18am 6 10 mph 1023.2mb 56f 58f
10:12am 8 11 mph 1023.2mb 56f 58f
10:00am 11 16 mph 1023.1mb 56f 58f
9:54am 11 15 mph 1023.1mb 56f 58f
9:48am 13 17 mph 1023mb 56f 58f
9:42am 11 16 mph 1023.1mb 56f 58f
9:36am 13 16 mph 1023mb 56f 57f
9:30am 11 17 mph 1023.2mb 56f 58f
9:24am 15 20 mph 1023.2mb 56f 59f
9:18am 9 14 mph 1023.2mb 56f 60f
9:12am 9 11 mph 1023mb 56f 60f
9:06am 6 11 mph 1023mb 56f 59f
9:00am 5 7 mph 1022.9mb 56f 55f
8:54am 5 6 mph 1023mb 56f 53f
8:48am 2 3 mph 1023mb 56f 53f
8:42am 2
mph
1023mb 56f 54f
8:36am 1 3 mph 1023mb 56f 55f
8:30am  -  2 mph 1023mb 56f 55f
8:24am 1 2 mph 1022.9mb 56f 55f
8:18am 1 3 mph 1023mb 56f 53f
8:12am 1 3 mph 1023.1mb 56f 53f
8:06am 2 5 mph 1023.2mb 56f 52f
8:00am 3 5 mph 1023.2mb 56f 51f
7:54am 3 6 mph 1023.4mb 56f 51f
7:48am 6 8 mph 1023.4mb 56f 51f
7:42am 6 7 mph 1023.4mb 56f 51f
7:36am 6 7 mph 1023.4mb 56f 51f
7:30am 6 7 mph 1023.3mb 56f 51f
7:24am 6 7 mph 1023.3mb 56f 51f
7:18am 5 7 mph 1023.2mb 56f 50f
7:12am 5 6 mph 1023.1mb 56f 51f
7:06am 3 5 mph 1023.1mb 56f 51f
7:00am 3 5 mph 1023mb 56f 51f
6:54am 2 5 mph 1022.9mb 56f 52f
6:48am 3 5 mph 1022.9mb 56f 52f
6:42am 3 5 mph 1023mb 56f 52f
6:36am 3 5 mph 1023mb 56f 52f
6:30am 2 5 mph 1023.1mb 56f 52f
6:24am 2 7 mph 1023.2mb 56f 52f
6:18am 5 7 mph 1023.3mb 56f 52f
6:12am 6 7 mph 1023.5mb 56f 52f
6:06am 6 8 mph 1023.6mb 56f 52f
6:00am 6 7 mph 1023.6mb 56f 52f
5:54am 6 7 mph 1023.6mb 56f 52f
5:48am 7 8 mph 1023.6mb 56f 52f
5:42am 6 8 mph 1023.7mb 56f 52f
5:36am 7 8 mph 1023.7mb 56f 52f
5:30am 7 8 mph 1023.7mb 56f 52f
5:24am 6 8 mph 1023.8mb 56f 52f
5:18am 7 8 mph 1023.9mb 56f 52f
5:12am 6 8 mph 1024.1mb 56f 51f
5:06am 7 8 mph 1024mb 56f 51f
5:00am 6
mph
1024.1mb 56f 51f
4:54am 5 6 mph 1024.2mb 56f 51f
4:48am 2 3 mph 1024.2mb 56f 51f
4:42am 2 3 mph 1024.3mb 56f 51f
4:36am 3 5 mph 1024.4mb 56f 51f
4:30am 5 6 mph 1024.5mb 56f 51f
4:24am 5 7 mph 1024.5mb 56f 51f
4:18am 6 7 mph 1024.4mb 56f 51f
4:12am 5 6 mph 1024.4mb 56f 51f
4:06am 5 7 mph 1024.3mb 56f 51f
4:00am 5 6 mph 1024.4mb 56f 51f
3:54am 5 6 mph 1024.6mb 56f 51f
3:48am 5 6 mph 1024.8mb 56f 51f
3:42am 5
mph
1025.1mb 56f 51f
3:36am 3 5 mph 1025.3mb 56f 51f
3:30am 2 3 mph 1025.4mb 56f 51f
3:24am 2 5 mph 1025.3mb 56f 51f
3:18am 2 5 mph 1025.4mb 56f 51f
3:12am 1 5 mph 1025.5mb 56f 51f
3:06am 3 5 mph 1025.6mb 56f 51f
3:00am 3
mph
1025.7mb 56f 51f
2:54am 2 3 mph 1025.8mb 56f 51f
2:48am 3
mph
1025.8mb 56f 51f
2:42am 3
mph
1025.9mb 56f 51f
2:36am 1 3 mph 1026.1mb 56f 51f
2:30am 2 3 mph 1026.1mb 56f 51f
2:24am 2 3 mph 1026.2mb 56f 51f
2:18am 2 5 mph 1026.1mb 56f 51f
2:12am 3
mph
1026.2mb 56f 51f
2:06am 2 3 mph 1026.2mb 56f 51f
2:00am 2 3 mph 1026.1mb 56f 50f
1:54am 1 5 mph 1026.1mb 56f 51f
1:48am 2
mph
1026.1mb 56f 50f
1:42am 1 2 mph 1026.2mb 56f 49f
1:36am  -  1 mph 1026.3mb 56f 49f
1:30am 1 2 mph 1026.2mb 56f 49f
1:24am 2
mph
1026.2mb 56f 49f
1:18am 1 2 mph 1026.2mb 56f 49f
1:12am 1 2 mph 1026.2mb 56f 49f
1:06am 2 3 mph 1026.2mb 56f 50f
1:00am 1 3 mph 1026.1mb 56f 50f
12:54am 2 3 mph 1026.2mb 56f 50f
12:48am 3
mph
1026.3mb 56f 51f
12:42am 2
mph
1026.5mb 56f 50f
12:36am  -  1 mph 1026.5mb 56f 50f
12:30am 1 2 mph 1026.5mb 56f 51f
12:24am 1 2 mph 1026.5mb 56f 50f
12:18am  -  2 mph 1026.6mb 56f 50f
12:06am 1 2 mph 1026.7mb 56f 49f
12:00am  -  1 mph 1026.8mb 56f 50f
Tue 11/25 11:54pm  -  3 mph 1026.8mb 56f 50f
11:48pm 1 3 mph 1026.8mb 56f 51f
11:42pm  -  3 mph 1026.9mb 56f 50f
11:36pm 2 3 mph 1027.1mb 56f 50f
11:30pm 1 3 mph 1027.1mb 56f 49f
11:24pm 2 3 mph 1027.1mb 56f 50f
11:18pm 2 3 mph 1027.1mb 56f 50f
11:12pm  -  2 mph 1027.1mb 56f 50f
11:06pm 1 3 mph 1027.1mb 56f 51f
11:00pm 2 3 mph 1027.1mb 56f 53f
10:54pm 3
mph
1027.1mb 56f 51f
10:48pm 3
mph
1027.2mb 56f 51f
10:42pm 2 3 mph 1027.3mb 56f 51f
10:36pm  -  1 mph 1027.4mb 56f 50f
10:30pm 2
mph
1027.4mb 56f 51f
10:24pm  -  1 mph 1027.4mb 56f 51f
10:18pm  -  1 mph 1027.4mb 56f 51f
10:12pm  -  1 mph 1027.4mb 56f 52f
10:06pm  -  1 mph 1027.5mb 56f 51f
10:00pm  -  1 mph 1027.5mb 56f 51f
9:54pm 2 3 mph 1027.5mb 56f 52f
9:48pm 2 3 mph 1027.6mb 56f 53f
9:42pm 2 3 mph 1027.6mb 56f 53f
9:36pm 2
mph
1027.5mb 56f 53f
9:30pm 1 2 mph 1027.5mb 56f 54f
9:24pm 2
mph
1027.4mb 56f 54f
9:18pm 2 3 mph 1027.4mb 56f 53f
9:12pm 2
mph
1027.5mb 56f 53f
9:06pm 1 2 mph 1027.5mb 56f 53f
9:00pm 1 2 mph 1027.6mb 56f 53f
8:54pm 1 2 mph 1027.5mb 56f 52f
8:48pm  -  1 mph 1027.5mb 56f 53f
8:42pm  -  mph 1027.4mb 56f 53f
8:36pm  -  1 mph 1027.4mb 56f 53f
8:30pm  -  1 mph 1027.4mb 56f 54f
8:24pm 1
mph
1027.4mb 57f 54f
8:18pm  -  1 mph 1027.5mb 57f 54f
8:12pm  -  2 mph 1027.6mb 57f 54f
8:06pm 2 3 mph 1027.6mb 57f 54f
8:00pm 3
mph
1027.6mb 57f 54f
7:54pm 3 5 mph 1027.7mb 57f 54f
7:48pm 2 3 mph 1027.8mb 57f 54f
7:42pm  -  1 mph 1027.9mb 57f 54f
7:36pm 1 2 mph 1027.9mb 57f 54f
7:30pm 2 3 mph 1028mb 57f 54f
7:24pm 3
mph
1028.1mb 57f 54f
7:18pm 3 5 mph 1028.1mb 57f 55f
7:12pm 3 6 mph 1028.1mb 57f 55f
7:06pm 6
mph
1028.2mb 57f 55f
7:00pm 5 6 mph 1028.3mb 57f 55f
6:54pm 5
mph
1028.4mb 57f 55f
6:48pm 3 6 mph 1028.4mb 57f 55f
6:42pm 5 6 mph 1028.4mb 57f 55f
6:36pm 5
mph
1028.3mb 57f 55f
6:30pm 3 5 mph 1028.4mb 56f 55f
6:24pm 2 3 mph 1028.4mb 56f 55f
6:18pm  -  1 mph 1028.4mb 56f 55f
6:12pm  -  mph 1028.5mb 56f 55f
6:06pm  -  3 mph 1028.5mb 56f 55f
6:00pm 2 3 mph 1028.4mb 56f 56f
5:54pm 2
mph
1028.5mb 56f 56f
5:48pm 1 2 mph 1028.5mb 56f 56f
5:42pm 1 2 mph 1028.6mb 56f 56f
5:36pm  -  2 mph 1028.5mb 56f 56f
5:30pm  -  1 mph 1028.6mb - 56f
5:24pm 1 5 mph 1028.6mb - 56f
5:18pm 3 5 mph 1028.6mb 56f 57f
5:12pm 5 6 mph 1028.6mb 56f 57f
5:06pm 5 6 mph 1028.7mb 56f 57f
5:00pm 5 6 mph 1028.7mb 56f 58f
4:54pm 5 6 mph 1028.6mb 56f 58f
4:48pm 5 6 mph 1028.6mb 56f 58f
4:42pm 3 6 mph 1028.6mb 56f 58f
4:36pm 5
mph
1028.6mb 56f 58f
4:30pm 5 6 mph 1028.6mb 56f 58f
4:24pm 5 6 mph 1028.6mb 56f 59f
4:18pm 3 5 mph 1028.6mb 56f 59f
4:12pm 5
mph
1028.5mb 56f 59f
4:06pm 5 6 mph 1028.4mb 56f 59f
4:00pm 3 6 mph 1028.4mb 56f 60f
3:54pm 5 6 mph 1028.3mb 56f 60f
3:48pm 2 5 mph 1028.3mb 56f 60f
3:42pm 2 5 mph 1028.4mb 56f 60f
3:36pm  -  1 mph 1028.4mb 56f 60f
3:30pm 1 5 mph 1028.5mb 56f 60f
3:24pm 6 7 mph 1028.5mb 56f 61f
3:18pm 6 8 mph 1028.6mb 56f 61f
3:12pm 8
mph
1028.6mb 56f 61f
3:06pm 6 7 mph 1028.7mb 56f 61f
3:00pm 6 8 mph 1028.7mb 56f 60f
2:54pm 8 9 mph 1028.7mb 56f 59f
2:48pm 9
mph
1028.8mb 56f 59f
2:42pm 9 10 mph 1028.8mb 56f 58f
2:36pm 9
mph
1028.8mb 56f 58f
2:30pm 8
mph
1028.8mb 56f 58f
2:24pm 7 8 mph 1028.8mb 56f 58f
2:18pm 7 8 mph 1028.9mb 56f 57f
2:06pm 6 7 mph 1029.1mb 56f 57f
2:00pm 6 7 mph 1029.2mb 56f 57f
1:54pm 6 7 mph 1029.3mb 56f 57f
1:48pm 6 7 mph 1029.4mb 56f 57f
1:42pm 6
mph
1029.4mb 56f 57f
1:36pm 5 6 mph 1029.5mb 56f 57f
1:30pm 3 5 mph 1029.6mb 56f 58f
1:24pm 3
mph
1029.6mb 56f 57f
1:18pm 3
mph
1029.6mb 56f 56f
1:12pm 2 3 mph 1029.7mb 56f 57f
1:06pm 2
mph
1029.8mb 56f 57f
1:00pm 2
mph
1029.8mb 56f 56f
12:54pm 2 3 mph 1029.9mb 56f 57f
12:48pm 2 3 mph 1030mb 56f 56f
12:42pm 2 3 mph 1030.1mb 56f 57f
12:36pm 3
mph
1030.1mb 56f 57f
12:30pm 2 3 mph 1030.2mb 56f 58f
12:24pm 3
mph
1030.3mb 56f 57f
12:18pm 2 3 mph 1030.5mb 56f 57f
12:12pm 3 5 mph 1030.5mb 56f 57f
12:06pm 3
mph
1030.6mb 56f 57f
12:00pm 3
mph
1030.6mb 56f 56f
11:54am 2 5 mph 1030.6mb 56f 56f
11:48am 3 5 mph 1030.7mb 56f 56f
11:42am 2 3 mph 1030.8mb 56f 56f
11:36am 2
mph
1030.9mb 56f 56f
11:30am 2 3 mph 1030.9mb 56f 56f
11:24am 3
mph
1031mb 56f 56f
11:18am 3 5 mph 1031.1mb 56f 56f
11:06am 3
mph
1031.2mb 56f 56f
11:00am 3 5 mph 1031.3mb 56f 56f
10:54am 3 5 mph 1031.3mb 56f 56f
10:48am 3 5 mph 1031.4mb 56f 56f
10:42am 3 5 mph 1031.4mb 56f 56f
10:36am 3 5 mph 1031.4mb 56f 56f
10:30am 3 5 mph 1031.4mb 56f 56f
10:24am 3 5 mph 1031.4mb 56f 56f
10:18am 3 5 mph 1031.4mb 56f 56f
10:12am 3 5 mph 1031.4mb 56f 56f
10:00am 5
mph
1031.4mb 56f 55f
9:54am 3 5 mph 1031.3mb 56f 56f
9:48am 3
mph
1031.3mb 56f 56f
9:42am 2
mph
1031.3mb 56f 57f
9:36am 1 2 mph 1031.3mb 56f 58f
9:30am  -  2 mph 1031.3mb 56f 59f
9:24am  -  3 mph 1031.2mb 56f 58f
9:18am 2 6 mph 1031.2mb 56f 58f
9:12am 2 3 mph 1031.2mb 56f 57f
9:06am 1 2 mph 1031.3mb 56f 55f
9:00am  -  1 mph 1031.2mb 56f 56f
8:54am  -  mph 1031.3mb 56f 57f
8:48am  -  2 mph 1031.3mb 56f 57f
8:42am 1 2 mph 1031.4mb 56f 56f
8:36am 1 2 mph 1031.3mb 56f 54f
8:30am 1 2 mph 1031.3mb 56f 54f
8:24am 2 3 mph 1031.4mb 56f 54f
8:18am 2 5 mph 1031.4mb 56f 55f
8:12am 3
mph
1031.4mb 56f 54f
8:06am 2 3 mph 1031.3mb 56f 54f
8:00am 3
mph
1031.3mb 56f 53f
7:54am 1 2 mph 1031.3mb 56f 53f
7:48am 1 2 mph 1031.2mb 56f 53f
7:42am 2 3 mph 1031.2mb 56f 53f
7:36am  -  6 mph 1031.1mb 56f 53f
7:30am 3 8 mph 1031.1mb 56f 53f
7:24am 7 8 mph 1031mb 56f 53f
7:18am 6 7 mph 1031mb 56f 53f
7:12am 6 7 mph 1030.9mb 56f 53f
7:06am 6 7 mph 1031mb 56f 53f
7:00am 6
mph
1031mb 56f 52f
6:54am 3
mph
1031mb 56f 52f
6:48am 2 3 mph 1031mb 56f 52f
6:42am 2 5 mph 1031mb 56f 51f
6:36am 5 6 mph 1031mb 56f 51f
6:30am 5 6 mph 1031mb 56f 51f
6:24am 5
mph
1031mb 56f 51f
6:18am 3 5 mph - - -
6:12am 2 3 mph - - -
6:06am 2 3 mph - - -
6:00am 2 3 mph 1030.8mb 56f 51f
5:54am 3 5 mph 1030.7mb 56f 52f
5:48am 3 5 mph 1030.7mb 56f 52f
5:42am 3 6 mph 1030.7mb 56f 51f
5:36am 5 6 mph 1030.7mb 56f 51f
5:30am 3 5 mph 1030.7mb 56f 52f
5:24am 5 6 mph 1030.6mb 56f 52f
5:18am 3 6 mph 1030.6mb 56f 52f
5:12am 3 5 mph 1030.6mb 56f 52f
5:06am 5 6 mph 1030.6mb 56f 52f
5:00am 5 6 mph 1030.5mb 56f 52f
4:54am 3 5 mph 1030.6mb 56f 52f
4:48am 5
mph
1030.6mb 56f 52f
4:42am 3 5 mph 1030.6mb 56f 52f
4:36am 2 3 mph 1030.5mb 56f 53f
4:30am 1 2 mph 1030.6mb 56f 53f
4:24am 1 2 mph 1030.6mb 56f 53f
4:12am 2
mph
1030.7mb 56f 53f
4:06am 2 5 mph 1030.8mb 56f 53f
4:00am 5 6 mph 1030.8mb 56f 54f
3:54am 2 5 mph 1030.9mb 56f 54f
3:48am 5 6 mph 1030.9mb 56f 54f
3:42am 6 9 mph 1031mb 56f 54f
3:36am 7 8 mph 1031.1mb 56f 54f
3:30am 5 7 mph 1031.3mb 56f 54f
3:24am 6 7 mph 1031.4mb 56f 53f
3:18am 6 8 mph 1031.4mb 56f 53f
3:12am 7 8 mph 1031.4mb 56f 53f
3:06am 7 8 mph 1031.5mb 56f 53f
3:00am 6 7 mph 1031.5mb 56f 53f
2:54am 5
mph
1031.3mb 56f 53f
2:48am 3
mph
1031.3mb 56f 53f
2:42am 3 5 mph 1031.3mb 56f 53f
2:36am 3
mph
1031.3mb 56f 53f
2:30am 2 3 mph 1031.2mb 56f 54f
2:24am 3 5 mph 1031.2mb 56f 54f
2:18am 3 6 mph 1031.1mb 56f 53f
2:12am 5 6 mph 1031mb 56f 53f
2:06am 3 5 mph 1031mb 56f 53f
2:00am 3 5 mph 1031mb 56f 53f
1:54am  -  3 mph 1030.8mb 56f 53f
1:48am 3 6 mph 1030.7mb 56f 53f
1:42am 5 6 mph 1030.6mb 56f 53f
1:36am 3 5 mph 1030.6mb 56f 52f
1:30am 3
mph
1030.7mb 56f 52f
1:24am 2
mph
1030.8mb 56f 52f
1:18am 1 3 mph 1030.8mb 56f 52f
1:12am 3
mph
1030.9mb 56f 52f
1:06am 1 2 mph 1030.9mb 56f 52f
1:00am 2 3 mph 1031mb 56f 52f
12:54am 3 5 mph 1031.1mb 56f 52f
12:48am 3 5 mph 1031mb 56f 53f
12:42am 3 5 mph 1031mb 56f 53f
12:36am 2 3 mph 1030.9mb 56f 53f
12:30am 2 3 mph 1030.9mb 56f 53f
12:24am 2
mph
1030.9mb 56f 52f
12:18am 2 3 mph 1030.9mb 56f 52f
12:12am 3 5 mph 1030.9mb 56f 52f
12:06am 1 2 mph 1030.9mb 56f 52f
12:00am 1 5 mph 1030.9mb 56f 52f
Mon 11/24 11:54pm 3 5 mph 1030.8mb 56f 52f
11:48pm 3 5 mph 1030.9mb 56f 52f
11:42pm 3
mph
1030.9mb 56f 52f
11:36pm 2 3 mph 1030.9mb 56f 52f
11:30pm 2 3 mph 1030.8mb 56f 53f
11:24pm 1 3 mph 1030.9mb 56f 53f
11:18pm 1 2 mph 1031mb 56f 53f
11:12pm  -  2 mph 1030.8mb 56f 53f
11:06pm 2 5 mph 1030.8mb 56f 53f
11:00pm 3 6 mph 1030.7mb 56f 53f
10:54pm 3 5 mph 1030.6mb 56f 53f
10:48pm 3 6 mph 1030.7mb 56f 53f
10:42pm 5 6 mph 1030.7mb 56f 53f
10:36pm 6
mph
1030.7mb 56f 53f
10:30pm 3 5 mph 1030.8mb 56f 53f
10:24pm 3 5 mph 1030.8mb 56f 53f
10:18pm 3
mph
1030.8mb 56f 53f
10:12pm 2
mph
1030.9mb 56f 53f
10:06pm 1 3 mph 1030.9mb 56f 53f
10:00pm 3
mph
1030.8mb 56f 53f
9:54pm  -  2 mph 1030.8mb 56f 53f
9:48pm 2 5 mph 1030.8mb 56f 53f
9:42pm 3 5 mph 1030.8mb 56f 53f
9:36pm 5 6 mph 1030.8mb 56f 53f
9:30pm 5 6 mph 1030.6mb 56f 53f
9:24pm 5 7 mph 1030.6mb 56f 53f
9:18pm 5 6 mph 1030.6mb 56f 53f
9:12pm 3 5 mph 1030.6mb 56f 53f
9:06pm 2 3 mph 1030.6mb 56f 53f
9:00pm 1 2 mph 1030.4mb 56f 53f
8:54pm 2 3 mph 1030.4mb 56f 53f
8:48pm 2 3 mph 1030.3mb 56f 53f
8:42pm 2 3 mph 1030.3mb 56f 54f
8:36pm 2 5 mph 1030.2mb 56f 54f
8:30pm 3 5 mph 1030.2mb 56f 54f
8:24pm 5 6 mph 1030.2mb 56f 54f
8:18pm 6 7 mph 1030.2mb 56f 54f
8:12pm 6
mph
1030.3mb 56f 54f
8:06pm 3 5 mph 1030.2mb 56f 54f
8:00pm 3
mph
1030.2mb 56f 54f
7:54pm 3 5 mph 1030.1mb 56f 54f
7:48pm 2 3 mph 1030.2mb 56f 53f
7:42pm  -  3 mph 1030.1mb 56f 53f
7:36pm 2
mph
1030mb 56f 54f
7:30pm 1 2 mph 1030mb 56f 53f
7:24pm 2 3 mph 1030mb 56f 53f
7:18pm 1 3 mph 1030mb 56f 54f
7:12pm 3
mph
1030mb 56f 53f
7:06pm 2 3 mph 1030mb 56f 54f
7:00pm 3 6 mph 1029.9mb 56f 54f
6:54pm 6 7 mph 1029.9mb 56f 54f
6:48pm 5 6 mph 1030mb 56f 53f
6:42pm 3 5 mph 1029.9mb 56f 53f
6:36pm 5
mph
1029.9mb 56f 53f
6:30pm 3 5 mph 1029.8mb 56f 53f
6:24pm 2 3 mph 1029.7mb 56f 53f
6:18pm 3 5 mph 1029.6mb 56f 53f
6:12pm 5
mph
1029.5mb 56f 55f
6:06pm 2 3 mph 1029.4mb 56f 55f
6:00pm 3 5 mph 1029.2mb 56f 55f
5:54pm 3 6 mph 1029.1mb 56f 55f
5:48pm 6 8 mph 1029mb 56f 55f
5:42pm 6 8 mph 1029mb 56f 56f
5:36pm 6
mph
1029mb 56f 56f
5:30pm 5 7 mph 1029.1mb 56f 56f
5:24pm 5 6 mph 1029.3mb 56f 56f
5:18pm 3 5 mph 1029.4mb 56f 55f
5:12pm 5
mph
1029.4mb 56f 55f
5:06pm 3 5 mph 1029.4mb 56f 55f
5:00pm 3 5 mph 1029.5mb 56f 56f
4:54pm 2 3 mph 1029.5mb 56f 56f
4:48pm 2 3 mph 1029.4mb 56f 56f
4:42pm 2 3 mph 1029.4mb 56f 56f
4:36pm 3
mph
1029.3mb 56f 56f
4:30pm 3 5 mph 1029.2mb 56f 56f
4:24pm 3 5 mph 1029.2mb 56f 56f
4:18pm 3 6 mph 1029.1mb 56f 56f
4:12pm 5 6 mph 1028.9mb 56f 56f
4:06pm 5 6 mph 1028.9mb 56f 56f
4:00pm 5 6 mph 1028.8mb 56f 57f
3:54pm 5 8 mph 1028.9mb 56f 57f
3:48pm 6 8 mph 1028.9mb 56f 57f
3:42pm 6 9 mph 1028.8mb 56f 57f
3:36pm 7 8 mph 1028.7mb 56f 57f
3:30pm 7 9 mph 1028.7mb 56f 57f
3:24pm 9 10 mph 1028.7mb 56f 57f
3:18pm 7 10 mph 1028.8mb 56f 57f
3:12pm 8 9 mph 1028.8mb 56f 57f
3:06pm 7 8 mph 1028.7mb 56f 57f
3:00pm 7 10 mph 1028.8mb 56f 57f
2:54pm 8 11 mph 1028.7mb 56f 57f
2:48pm 7 10 mph 1028.7mb 56f 57f
2:42pm 7 9 mph 1028.7mb 56f 56f
2:36pm 7 8 mph 1028.8mb 56f 57f
2:30pm 7 8 mph 1028.8mb 56f 57f
2:24pm 7 8 mph 1028.8mb 56f 57f
2:18pm 7 10 mph 1028.7mb 56f 57f
2:12pm 9 10 mph 1028.8mb 56f 57f
2:06pm 8 10 mph 1028.8mb 56f 57f
2:00pm 9 10 mph 1028.9mb 56f 57f
1:54pm 7 10 mph 1028.9mb 56f 57f
1:48pm 7 10 mph 1028.9mb 56f 57f
1:42pm 7 9 mph 1028.9mb 56f 57f
1:36pm 6 9 mph 1029mb 56f 57f
1:30pm 6 8 mph 1029mb 56f 57f
1:24pm 7 10 mph 1029mb 56f 57f
1:18pm 6 8 mph 1028.9mb 56f 57f
1:06pm 8 9 mph 1028.9mb 56f 57f
1:00pm 6 8 mph 1029mb 56f 57f
12:54pm 6 8 mph 1029.1mb 56f 57f
12:48pm 6 8 mph 1029.2mb 56f 57f
12:42pm 5 8 mph 1029.3mb 56f 58f
12:36pm 5 8 mph 1029.3mb 56f 58f
12:30pm 6 9 mph 1029.2mb 56f 59f
12:24pm 3 5 mph 1029.2mb 56f 58f
12:18pm  -  2 mph 1029.4mb 56f 59f
12:12pm 1 2 mph 1029.5mb 56f 57f
12:06pm 3 5 mph 1029.6mb 56f 57f
12:00pm 2 5 mph 1029.7mb 56f 56f
11:54am 3 5 mph 1029.8mb 56f 56f
11:48am 3 6 mph 1029.9mb 56f 57f
11:42am 3 6 mph 1029.9mb 56f 56f
11:36am 3 6 mph 1029.9mb 56f 56f
11:30am 3 5 mph 1029.9mb 56f 57f
11:24am 2
mph
1029.9mb 56f 57f
11:18am  -  2 mph 1029.9mb 56f 57f
11:06am  -  2 mph 1029.9mb 56f 58f
11:00am 1 2 mph 1029.9mb 56f 58f
10:54am 1 2 mph 1029.8mb 56f 58f
10:48am  -  1 mph 1029.8mb 56f 58f
10:42am  -  1 mph 1029.8mb 56f 56f
10:36am 1 2 mph 1029.9mb 56f 57f
10:30am  -  2 mph 1029.9mb 56f 56f
10:24am  -  2 mph 1029.8mb 56f 56f
10:18am 2 3 mph 1029.7mb 56f 56f
10:12am 2 5 mph 1029.7mb 56f 57f
10:06am 3 6 mph 1029.6mb 56f 57f
10:00am 3 5 mph 1029.5mb 56f 56f
9:54am 3 6 mph 1029.5mb 56f 56f
9:48am 3 5 mph 1029.3mb 56f 56f
9:42am 3 6 mph 1029.3mb 56f 55f
9:36am 3 6 mph 1029.3mb 56f 54f
9:30am 6 7 mph 1029.3mb 56f 54f
9:24am 5 6 mph 1029.5mb 56f 55f
9:18am 5 7 mph 1029.4mb 56f 55f
9:12am 6 7 mph 1029.3mb 56f 54f
9:06am 5 6 mph 1029.3mb 56f 53f
9:00am 3 6 mph 1029.1mb 56f 52f
8:54am 5 7 mph 1029mb 56f 51f